Fairpartner — PHEC — position and weather

sailwx.info

Track history (hours):
 
Tides and Currents Weather Stations Pressure Air Temp Water Temp Dewpoint Dewpoint Depression Visibility Wind Speed Wind Dir Waves Ship Positions

Fairpartner

Last reported at 2018-Feb-18 16:10 UTC. Time now 2018-Feb-22 05:16 UTC.
Position N 01°14' E 103°28'.

Length 143 m; beam 27 m.

Type: Cargo ship. MMSI: 246466992.

Date/timePositionNaut miles runAvg speedWind from/ knotsBaromVisibWave heightAir tempDewpointWater temp
2018-Feb-18 16:10N 01°14' E 103°28'314.3
2018-Feb-18 15:59N 01°13' E 103°30'715.2
2018-Feb-18 15:30N 01°12' E 103°37'814.9
2018-Feb-18 14:57N 01°09' E 103°45'5 9.0
2018-Feb-18 14:24N 01°13' E 103°48'2 2.1
2018-Feb-18 13:34N 01°14' E 103°48'0 0.1
2018-Feb-18 13:01N 01°14' E 103°49'0 0.0
2018-Feb-18 12:49N 01°14' E 103°49'0 0.0
2018-Feb-18 12:30N 01°14' E 103°49'0 0.1
2018-Feb-18 12:00N 01°14' E 103°49'0 0.0
2018-Feb-18 11:16N 01°14' E 103°49'0 0.0
2018-Feb-18 11:00N 01°14' E 103°49'0 0.1
2018-Feb-18 10:24N 01°14' E 103°49'0 0.2
2018-Feb-18 10:00N 01°14' E 103°48'0 0.1
2018-Feb-18 09:25N 01°14' E 103°49'0 0.1
2018-Feb-18 09:00N 01°14' E 103°48'0 0.1
2018-Feb-18 08:30N 01°14' E 103°49'0 0.0
2018-Feb-18 07:41N 01°14' E 103°49'0 0.0
2018-Feb-18 07:30N 01°14' E 103°49'0 0.0
2018-Feb-18 07:01N 01°14' E 103°49'0 0.0
2018-Feb-18 06:30N 01°14' E 103°49'0 0.0
2018-Feb-18 06:00N 01°14' E 103°49'0 0.0
2018-Feb-18 05:30N 01°14' E 103°49'0 0.0
2018-Feb-18 05:01N 01°14' E 103°49'0 0.0
2018-Feb-18 04:31N 01°14' E 103°49'0 0.0
2018-Feb-18 03:59N 01°14' E 103°49'0 0.1
2018-Feb-18 03:31N 01°14' E 103°48'0 0.0
2018-Feb-18 03:00N 01°14' E 103°48'0 0.1
2018-Feb-18 02:28N 01°14' E 103°48'0 0.1
2018-Feb-18 02:00N 01°14' E 103°48'0 0.1
2018-Feb-18 01:30N 01°14' E 103°49'2 3.1
2018-Feb-18 00:58N 01°15' E 103°47'4 9.7
2018-Feb-18 00:30N 01°18' E 103°44'0 0.6
2018-Feb-17 23:53N 01°18' E 103°43'0 0.0
2018-Feb-17 23:26N 01°18' E 103°43'0 0.0
2018-Feb-17 22:56N 01°18' E 103°43'0 0.0
2018-Feb-17 22:29N 01°18' E 103°43'0 0.0
2018-Feb-17 20:47N 01°18' E 103°43'0 0.0
2018-Feb-17 20:26N 01°18' E 103°43'0 0.0
2018-Feb-17 19:59N 01°18' E 103°43'0 0.0
2018-Feb-17 19:20N 01°18' E 103°43'0 0.0
2018-Feb-17 18:44N 01°18' E 103°43'0 0.0
2018-Feb-17 18:02N 01°18' E 103°43'0 0.0
2018-Feb-17 17:56N 01°18' E 103°43'0 0.0
2018-Feb-17 14:38N 01°18' E 103°43'0 0.0
2018-Feb-17 14:26N 01°18' E 103°43'0 0.0
2018-Feb-17 13:56N 01°18' E 103°43'0 0.0
2018-Feb-17 13:08N 01°18' E 103°43'0 0.0
2018-Feb-17 12:56N 01°18' E 103°43'0 0.0
2018-Feb-17 11:00N 01°18' E 103°43'0 0.0
2018-Feb-17 10:30N 01°18' E 103°43'0 0.0
2018-Feb-17 10:01N 01°18' E 103°43'0 0.0
2018-Feb-17 09:30N 01°18' E 103°43'0 0.0
2018-Feb-17 08:12N 01°18' E 103°43'0 0.0
2018-Feb-17 07:48N 01°18' E 103°43'0 0.0
2018-Feb-17 07:27N 01°18' E 103°43'0 0.0
2018-Feb-17 06:57N 01°18' E 103°43'0 0.0
2018-Feb-17 06:30N 01°18' E 103°43'0 0.0
2018-Feb-17 05:24N 01°18' E 103°43'0 0.0
2018-Feb-17 04:54N 01°18' E 103°43'0 0.0
2018-Feb-17 04:30N 01°18' E 103°43'0 0.0
2018-Feb-17 04:00N 01°18' E 103°43'0 0.0
2018-Feb-17 03:30N 01°18' E 103°43'0 0.0
2018-Feb-17 03:00N 01°18' E 103°43'0 0.0
2018-Feb-17 02:30N 01°18' E 103°43'0 0.0
2018-Feb-17 01:57N 01°18' E 103°43'0 0.0
2018-Feb-17 01:30N 01°18' E 103°43'0 0.0
2018-Feb-17 00:57N 01°18' E 103°43'0 0.0
2018-Feb-17 00:30N 01°18' E 103°43'0 0.0
2018-Feb-17 00:00N 01°18' E 103°43'0 0.0
2018-Feb-16 23:27N 01°18' E 103°43'0 0.0
2018-Feb-16 22:57N 01°18' E 103°43'0 0.0
2018-Feb-16 22:30N 01°18' E 103°43'0 0.0
2018-Feb-16 22:00N 01°18' E 103°43'0 0.0
2018-Feb-16 21:21N 01°18' E 103°43'0 0.0
2018-Feb-16 21:00N 01°18' E 103°43'0 0.0
2018-Feb-16 20:30N 01°18' E 103°43'0 0.0
2018-Feb-16 19:57N 01°18' E 103°43'0 0.0
2018-Feb-16 19:21N 01°18' E 103°43'0 0.0
2018-Feb-16 19:00N 01°18' E 103°43'0 0.0
2018-Feb-16 18:30N 01°18' E 103°43'0 0.0
2018-Feb-16 17:54N 01°18' E 103°43'0 0.0
2018-Feb-16 17:27N 01°18' E 103°43'0 0.0
2018-Feb-16 16:54N 01°18' E 103°43'0 0.0
2018-Feb-16 16:24N 01°18' E 103°43'0 0.0
2018-Feb-16 15:42N 01°18' E 103°43'0 0.0
2018-Feb-16 15:27N 01°18' E 103°43'0 0.0
2018-Feb-16 15:00N 01°18' E 103°43'0 0.0
2018-Feb-16 14:24N 01°18' E 103°43'0 0.0
2018-Feb-16 13:48N 01°18' E 103°43'0 0.0
2018-Feb-16 13:16N 01°18' E 103°43'0 0.0
2018-Feb-16 11:27N 01°18' E 103°43'0 0.0
2018-Feb-16 10:15N 01°18' E 103°43'0 0.0
2018-Feb-16 09:54N 01°18' E 103°43'0 0.0
2018-Feb-16 09:18N 01°18' E 103°43'0 0.0
2018-Feb-16 09:00N 01°18' E 103°43'0 0.0
2018-Feb-16 08:30N 01°18' E 103°43'0 0.0
2018-Feb-16 08:00N 01°18' E 103°43'0 0.0
2018-Feb-16 07:26N 01°18' E 103°43'1 1.6
2018-Feb-16 07:00N 01°18' E 103°44'611.0
2018-Feb-16 06:30N 01°14' E 103°48'611.8
2018-Feb-16 06:00N 01°13' E 103°53'510.1
2018-Feb-16 05:30N 01°15' E 103°58'  
2018-Feb-11 21:31N 23°21' E 119°48'012.3
2018-Feb-11 21:30N 23°21' E 119°48'714.6
2018-Feb-11 21:00N 23°28' E 119°49'715.0
2018-Feb-11 20:30N 23°35' E 119°50'815.3
2018-Feb-11 20:00N 23°43' E 119°51'815.3
2018-Feb-11 19:30N 23°51' E 119°53'7515.8
2018-Feb-11 14:48N 24°56' E 120°32'  
Track history (hours):
 
Tides and Currents Weather Stations Pressure Air Temp Water Temp Dewpoint Dewpoint Depression Visibility Wind Speed Wind Dir Waves Ship Positions

Fairpartner

Last reported at 2018-Feb-18 16:10 UTC. Time now 2018-Feb-22 05:16 UTC.
Position N 01°14' E 103°28'.

Length 143 m; beam 27 m.

Type: Cargo ship. MMSI: 246466992.

Date/timePositionNaut miles runAvg speedWind from/ knotsBaromVisibWave heightAir tempDewpointWater temp
2018-Feb-18 16:10N 01°14' E 103°28'314.3
2018-Feb-18 15:59N 01°13' E 103°30'715.2
2018-Feb-18 15:30N 01°12' E 103°37'814.9
2018-Feb-18 14:57N 01°09' E 103°45'5 9.0
2018-Feb-18 14:24N 01°13' E 103°48'2 2.1
2018-Feb-18 13:34N 01°14' E 103°48'0 0.1
2018-Feb-18 13:01N 01°14' E 103°49'0 0.0
2018-Feb-18 12:49N 01°14' E 103°49'0 0.0
2018-Feb-18 12:30N 01°14' E 103°49'0 0.1
2018-Feb-18 12:00N 01°14' E 103°49'0 0.0
2018-Feb-18 11:16N 01°14' E 103°49'0 0.0
2018-Feb-18 11:00N 01°14' E 103°49'0 0.1
2018-Feb-18 10:24N 01°14' E 103°49'0 0.2
2018-Feb-18 10:00N 01°14' E 103°48'0 0.1
2018-Feb-18 09:25N 01°14' E 103°49'0 0.1
2018-Feb-18 09:00N 01°14' E 103°48'0 0.1
2018-Feb-18 08:30N 01°14' E 103°49'0 0.0
2018-Feb-18 07:41N 01°14' E 103°49'0 0.0
2018-Feb-18 07:30N 01°14' E 103°49'0 0.0
2018-Feb-18 07:01N 01°14' E 103°49'0 0.0
2018-Feb-18 06:30N 01°14' E 103°49'0 0.0
2018-Feb-18 06:00N 01°14' E 103°49'0 0.0
2018-Feb-18 05:30N 01°14' E 103°49'0 0.0
2018-Feb-18 05:01N 01°14' E 103°49'0 0.0
2018-Feb-18 04:31N 01°14' E 103°49'0 0.0
2018-Feb-18 03:59N 01°14' E 103°49'0 0.1
2018-Feb-18 03:31N 01°14' E 103°48'0 0.0
2018-Feb-18 03:00N 01°14' E 103°48'0 0.1
2018-Feb-18 02:28N 01°14' E 103°48'0 0.1
2018-Feb-18 02:00N 01°14' E 103°48'0 0.1
2018-Feb-18 01:30N 01°14' E 103°49'2 3.1
2018-Feb-18 00:58N 01°15' E 103°47'4 9.7
2018-Feb-18 00:30N 01°18' E 103°44'0 0.6
2018-Feb-17 23:53N 01°18' E 103°43'0 0.0
2018-Feb-17 23:26N 01°18' E 103°43'0 0.0
2018-Feb-17 22:56N 01°18' E 103°43'0 0.0
2018-Feb-17 22:29N 01°18' E 103°43'0 0.0
2018-Feb-17 20:47N 01°18' E 103°43'0 0.0
2018-Feb-17 20:26N 01°18' E 103°43'0 0.0
2018-Feb-17 19:59N 01°18' E 103°43'0 0.0
2018-Feb-17 19:20N 01°18' E 103°43'0 0.0
2018-Feb-17 18:44N 01°18' E 103°43'0 0.0
2018-Feb-17 18:02N 01°18' E 103°43'0 0.0
2018-Feb-17 17:56N 01°18' E 103°43'0 0.0
2018-Feb-17 14:38N 01°18' E 103°43'0 0.0
2018-Feb-17 14:26N 01°18' E 103°43'0 0.0
2018-Feb-17 13:56N 01°18' E 103°43'0 0.0
2018-Feb-17 13:08N 01°18' E 103°43'0 0.0
2018-Feb-17 12:56N 01°18' E 103°43'0 0.0
2018-Feb-17 11:00N 01°18' E 103°43'0 0.0
2018-Feb-17 10:30N 01°18' E 103°43'0 0.0
2018-Feb-17 10:01N 01°18' E 103°43'0 0.0
2018-Feb-17 09:30N 01°18' E 103°43'0 0.0
2018-Feb-17 08:12N 01°18' E 103°43'0 0.0
2018-Feb-17 07:48N 01°18' E 103°43'0 0.0
2018-Feb-17 07:27N 01°18' E 103°43'0 0.0
2018-Feb-17 06:57N 01°18' E 103°43'0 0.0
2018-Feb-17 06:30N 01°18' E 103°43'0 0.0
2018-Feb-17 05:24N 01°18' E 103°43'0 0.0
2018-Feb-17 04:54N 01°18' E 103°43'0 0.0
2018-Feb-17 04:30N 01°18' E 103°43'0 0.0
2018-Feb-17 04:00N 01°18' E 103°43'0 0.0
2018-Feb-17 03:30N 01°18' E 103°43'0 0.0
2018-Feb-17 03:00N 01°18' E 103°43'0 0.0
2018-Feb-17 02:30N 01°18' E 103°43'0 0.0
2018-Feb-17 01:57N 01°18' E 103°43'0 0.0
2018-Feb-17 01:30N 01°18' E 103°43'0 0.0
2018-Feb-17 00:57N 01°18' E 103°43'0 0.0
2018-Feb-17 00:30N 01°18' E 103°43'0 0.0
2018-Feb-17 00:00N 01°18' E 103°43'0 0.0
2018-Feb-16 23:27N 01°18' E 103°43'0 0.0
2018-Feb-16 22:57N 01°18' E 103°43'0 0.0
2018-Feb-16 22:30N 01°18' E 103°43'0 0.0
2018-Feb-16 22:00N 01°18' E 103°43'0 0.0
2018-Feb-16 21:21N 01°18' E 103°43'0 0.0
2018-Feb-16 21:00N 01°18' E 103°43'0 0.0
2018-Feb-16 20:30N 01°18' E 103°43'0 0.0
2018-Feb-16 19:57N 01°18' E 103°43'0 0.0
2018-Feb-16 19:21N 01°18' E 103°43'0 0.0
2018-Feb-16 19:00N 01°18' E 103°43'0 0.0
2018-Feb-16 18:30N 01°18' E 103°43'0 0.0
2018-Feb-16 17:54N 01°18' E 103°43'0 0.0
2018-Feb-16 17:27N 01°18' E 103°43'0 0.0
2018-Feb-16 16:54N 01°18' E 103°43'0 0.0
2018-Feb-16 16:24N 01°18' E 103°43'0 0.0
2018-Feb-16 15:42N 01°18' E 103°43'0 0.0
2018-Feb-16 15:27N 01°18' E 103°43'0 0.0
2018-Feb-16 15:00N 01°18' E 103°43'0 0.0
2018-Feb-16 14:24N 01°18' E 103°43'0 0.0
2018-Feb-16 13:48N 01°18' E 103°43'0 0.0
2018-Feb-16 13:16N 01°18' E 103°43'0 0.0
2018-Feb-16 11:27N 01°18' E 103°43'0 0.0
2018-Feb-16 10:15N 01°18' E 103°43'0 0.0
2018-Feb-16 09:54N 01°18' E 103°43'0 0.0
2018-Feb-16 09:18N 01°18' E 103°43'0 0.0
2018-Feb-16 09:00N 01°18' E 103°43'0 0.0
2018-Feb-16 08:30N 01°18' E 103°43'0 0.0
2018-Feb-16 08:00N 01°18' E 103°43'0 0.0
2018-Feb-16 07:26N 01°18' E 103°43'1 1.6
2018-Feb-16 07:00N 01°18' E 103°44'611.0
2018-Feb-16 06:30N 01°14' E 103°48'611.8
2018-Feb-16 06:00N 01°13' E 103°53'510.1
2018-Feb-16 05:30N 01°15' E 103°58'  
2018-Feb-11 21:31N 23°21' E 119°48'012.3
2018-Feb-11 21:30N 23°21' E 119°48'714.6
2018-Feb-11 21:00N 23°28' E 119°49'715.0
2018-Feb-11 20:30N 23°35' E 119°50'815.3
2018-Feb-11 20:00N 23°43' E 119°51'815.3
2018-Feb-11 19:30N 23°51' E 119°53'7515.8
2018-Feb-11 14:48N 24°56' E 120°32'  

Dump ship's entire track history